sensor_id;sensor_type;location;lat;lon;timestamp;P1;durP1;ratioP1;P2;durP2;ratioP2
74158;SDS011;62511;47.970;11.774;2023-04-06T00:02:23;7.85;;;4.95;;
74158;SDS011;62511;47.970;11.774;2023-04-06T00:07:17;5.68;;;3.40;;
74158;SDS011;62511;47.970;11.774;2023-04-06T00:09:47;4.10;;;3.53;;
74158;SDS011;62511;47.970;11.774;2023-04-06T00:12:59;5.53;;;2.88;;
74158;SDS011;62511;47.970;11.774;2023-04-06T00:15:25;7.78;;;3.38;;
74158;SDS011;62511;47.970;11.774;2023-04-06T00:18:04;6.00;;;3.92;;
74158;SDS011;62511;47.970;11.774;2023-04-06T00:20:30;3.90;;;2.95;;
74158;SDS011;62511;47.970;11.774;2023-04-06T00:22:57;6.78;;;4.22;;
74158;SDS011;62511;47.970;11.774;2023-04-06T00:25:25;7.43;;;3.97;;
74158;SDS011;62511;47.970;11.774;2023-04-06T00:27:52;9.73;;;4.45;;
74158;SDS011;62511;47.970;11.774;2023-04-06T00:30:29;6.38;;;3.65;;
74158;SDS011;62511;47.970;11.774;2023-04-06T00:32:55;5.85;;;2.97;;
74158;SDS011;62511;47.970;11.774;2023-04-06T00:35:21;6.20;;;4.13;;
74158;SDS011;62511;47.970;11.774;2023-04-06T00:37:53;6.55;;;4.07;;
74158;SDS011;62511;47.970;11.774;2023-04-06T00:40:19;10.07;;;4.47;;
74158;SDS011;62511;47.970;11.774;2023-04-06T00:42:45;7.00;;;3.65;;
74158;SDS011;62511;47.970;11.774;2023-04-06T00:45:14;6.63;;;3.38;;
74158;SDS011;62511;47.970;11.774;2023-04-06T00:47:47;5.65;;;3.63;;
74158;SDS011;62511;47.970;11.774;2023-04-06T00:50:18;6.68;;;4.32;;
74158;SDS011;62511;47.970;11.774;2023-04-06T00:52:45;6.20;;;3.53;;
74158;SDS011;62511;47.970;11.774;2023-04-06T00:57:40;4.43;;;2.25;;
74158;SDS011;62511;47.970;11.774;2023-04-06T01:00:13;5.00;;;3.45;;
74158;SDS011;62511;47.970;11.774;2023-04-06T01:02:40;4.95;;;3.88;;
74158;SDS011;62511;47.970;11.774;2023-04-06T01:05:33;7.45;;;3.22;;
74158;SDS011;62511;47.970;11.774;2023-04-06T01:08:05;4.53;;;2.85;;
74158;SDS011;62511;47.970;11.774;2023-04-06T01:10:31;7.43;;;3.88;;
74158;SDS011;62511;47.970;11.774;2023-04-06T01:12:59;4.40;;;2.83;;
74158;SDS011;62511;47.970;11.774;2023-04-06T01:15:26;7.03;;;3.80;;
74158;SDS011;62511;47.970;11.774;2023-04-06T01:17:57;5.80;;;3.40;;
74158;SDS011;62511;47.970;11.774;2023-04-06T01:20:37;5.32;;;3.10;;
74158;SDS011;62511;47.970;11.774;2023-04-06T01:23:04;5.18;;;3.25;;
74158;SDS011;62511;47.970;11.774;2023-04-06T01:25:47;7.65;;;3.47;;
74158;SDS011;62511;47.970;11.774;2023-04-06T01:28:41;5.40;;;2.63;;
74158;SDS011;62511;47.970;11.774;2023-04-06T01:31:17;6.10;;;2.67;;
74158;SDS011;62511;47.970;11.774;2023-04-06T01:34:05;4.07;;;3.53;;
74158;SDS011;62511;47.970;11.774;2023-04-06T01:36:57;3.35;;;2.47;;
74158;SDS011;62511;47.970;11.774;2023-04-06T01:39:27;4.68;;;2.55;;
74158;SDS011;62511;47.970;11.774;2023-04-06T01:41:56;4.43;;;3.28;;
74158;SDS011;62511;47.970;11.774;2023-04-06T01:44:24;4.60;;;3.15;;
74158;SDS011;62511;47.970;11.774;2023-04-06T01:47:13;5.93;;;4.25;;
74158;SDS011;62511;47.970;11.774;2023-04-06T01:49:58;9.32;;;3.47;;
74158;SDS011;62511;47.970;11.774;2023-04-06T01:52:35;4.25;;;2.38;;
74158;SDS011;62511;47.970;11.774;2023-04-06T01:55:36;4.15;;;2.67;;
74158;SDS011;62511;47.970;11.774;2023-04-06T01:58:09;5.30;;;3.28;;
74158;SDS011;62511;47.970;11.774;2023-04-06T02:00:36;5.05;;;2.30;;
74158;SDS011;62511;47.970;11.774;2023-04-06T02:03:04;5.10;;;3.67;;
74158;SDS011;62511;47.970;11.774;2023-04-06T02:05:33;3.22;;;2.08;;
74158;SDS011;62511;47.970;11.774;2023-04-06T02:08:18;8.40;;;2.00;;
74158;SDS011;62511;47.970;11.774;2023-04-06T02:10:50;10.75;;;2.95;;
74158;SDS011;62511;47.970;11.774;2023-04-06T02:13:19;5.28;;;3.20;;
74158;SDS011;62511;47.970;11.774;2023-04-06T02:18:53;6.50;;;3.15;;
74158;SDS011;62511;47.970;11.774;2023-04-06T02:21:32;4.35;;;3.92;;
74158;SDS011;62511;47.970;11.774;2023-04-06T02:23:58;5.43;;;2.97;;
74158;SDS011;62511;47.970;11.774;2023-04-06T02:26:30;7.95;;;3.00;;
74158;SDS011;62511;47.970;11.774;2023-04-06T02:29:00;7.35;;;3.22;;
74158;SDS011;62511;47.970;11.774;2023-04-06T02:31:31;5.80;;;3.42;;
74158;SDS011;62511;47.970;11.774;2023-04-06T02:34:06;4.65;;;3.45;;
74158;SDS011;62511;47.970;11.774;2023-04-06T02:36:43;2.92;;;2.72;;
74158;SDS011;62511;47.970;11.774;2023-04-06T02:39:22;7.40;;;3.55;;
74158;SDS011;62511;47.970;11.774;2023-04-06T02:42:01;4.22;;;3.10;;
74158;SDS011;62511;47.970;11.774;2023-04-06T02:44:29;8.65;;;3.08;;
74158;SDS011;62511;47.970;11.774;2023-04-06T02:47:02;7.60;;;3.55;;
74158;SDS011;62511;47.970;11.774;2023-04-06T02:49:28;5.60;;;2.80;;
74158;SDS011;62511;47.970;11.774;2023-04-06T02:51:54;6.45;;;3.58;;
74158;SDS011;62511;47.970;11.774;2023-04-06T02:54:23;5.35;;;3.08;;
74158;SDS011;62511;47.970;11.774;2023-04-06T02:56:51;3.42;;;2.42;;
74158;SDS011;62511;47.970;11.774;2023-04-06T02:59:32;9.38;;;2.80;;
74158;SDS011;62511;47.970;11.774;2023-04-06T03:02:14;7.85;;;4.05;;
74158;SDS011;62511;47.970;11.774;2023-04-06T03:04:41;5.18;;;2.22;;
74158;SDS011;62511;47.970;11.774;2023-04-06T03:07:18;5.15;;;2.47;;
74158;SDS011;62511;47.970;11.774;2023-04-06T03:09:59;5.57;;;3.38;;
74158;SDS011;62511;47.970;11.774;2023-04-06T03:12:28;5.28;;;2.55;;
74158;SDS011;62511;47.970;11.774;2023-04-06T03:15:19;4.35;;;2.90;;
74158;SDS011;62511;47.970;11.774;2023-04-06T03:18:00;9.02;;;3.65;;
74158;SDS011;62511;47.970;11.774;2023-04-06T03:21:04;6.18;;;3.15;;
74158;SDS011;62511;47.970;11.774;2023-04-06T03:23:34;2.75;;;2.10;;
74158;SDS011;62511;47.970;11.774;2023-04-06T03:26:03;5.22;;;3.92;;
74158;SDS011;62511;47.970;11.774;2023-04-06T03:28:35;4.50;;;3.25;;
74158;SDS011;62511;47.970;11.774;2023-04-06T03:31:02;5.10;;;3.17;;
74158;SDS011;62511;47.970;11.774;2023-04-06T03:33:28;6.10;;;2.90;;
74158;SDS011;62511;47.970;11.774;2023-04-06T03:36:00;5.15;;;3.03;;
74158;SDS011;62511;47.970;11.774;2023-04-06T03:38:35;3.55;;;2.75;;
74158;SDS011;62511;47.970;11.774;2023-04-06T03:41:02;4.57;;;2.95;;
74158;SDS011;62511;47.970;11.774;2023-04-06T03:43:32;3.15;;;2.00;;
74158;SDS011;62511;47.970;11.774;2023-04-06T03:46:01;6.65;;;3.75;;
74158;SDS011;62511;47.970;11.774;2023-04-06T03:48:32;4.15;;;2.65;;
74158;SDS011;62511;47.970;11.774;2023-04-06T03:51:11;4.85;;;2.83;;
74158;SDS011;62511;47.970;11.774;2023-04-06T03:54:12;4.38;;;2.70;;
74158;SDS011;62511;47.970;11.774;2023-04-06T03:56:40;7.57;;;2.90;;
74158;SDS011;62511;47.970;11.774;2023-04-06T03:59:31;5.72;;;2.67;;
74158;SDS011;62511;47.970;11.774;2023-04-06T04:02:01;3.88;;;2.72;;
74158;SDS011;62511;47.970;11.774;2023-04-06T04:04:33;5.03;;;2.45;;
74158;SDS011;62511;47.970;11.774;2023-04-06T04:07:03;4.85;;;2.63;;
74158;SDS011;62511;47.970;11.774;2023-04-06T04:10:00;6.88;;;2.92;;
74158;SDS011;62511;47.970;11.774;2023-04-06T04:12:49;3.78;;;2.53;;
74158;SDS011;62511;47.970;11.774;2023-04-06T04:15:19;3.72;;;3.08;;
74158;SDS011;62511;47.970;11.774;2023-04-06T04:17:54;4.85;;;2.75;;
74158;SDS011;62511;47.970;11.774;2023-04-06T04:20:47;6.03;;;3.75;;
74158;SDS011;62511;47.970;11.774;2023-04-06T04:23:39;3.38;;;2.50;;
74158;SDS011;62511;47.970;11.774;2023-04-06T04:26:05;4.25;;;3.40;;
74158;SDS011;62511;47.970;11.774;2023-04-06T04:28:35;4.22;;;2.13;;
74158;SDS011;62511;47.970;11.774;2023-04-06T04:31:02;6.95;;;2.63;;
74158;SDS011;62511;47.970;11.774;2023-04-06T04:34:01;2.92;;;2.28;;
74158;SDS011;62511;47.970;11.774;2023-04-06T04:36:29;3.70;;;2.60;;
74158;SDS011;62511;47.970;11.774;2023-04-06T04:39:18;6.65;;;3.30;;
74158;SDS011;62511;47.970;11.774;2023-04-06T04:41:47;6.82;;;3.38;;
74158;SDS011;62511;47.970;11.774;2023-04-06T04:44:37;4.47;;;2.78;;
74158;SDS011;62511;47.970;11.774;2023-04-06T04:47:22;16.30;;;3.05;;
74158;SDS011;62511;47.970;11.774;2023-04-06T04:49:51;6.40;;;2.70;;
74158;SDS011;62511;47.970;11.774;2023-04-06T04:52:52;4.43;;;2.33;;
74158;SDS011;62511;47.970;11.774;2023-04-06T04:55:23;8.90;;;3.85;;
74158;SDS011;62511;47.970;11.774;2023-04-06T04:58:13;8.30;;;2.47;;
74158;SDS011;62511;47.970;11.774;2023-04-06T05:01:03;6.32;;;2.75;;
74158;SDS011;62511;47.970;11.774;2023-04-06T05:03:36;7.40;;;2.88;;
74158;SDS011;62511;47.970;11.774;2023-04-06T05:06:13;7.18;;;3.50;;
74158;SDS011;62511;47.970;11.774;2023-04-06T05:08:50;7.80;;;4.20;;
74158;SDS011;62511;47.970;11.774;2023-04-06T05:11:20;6.00;;;3.25;;
74158;SDS011;62511;47.970;11.774;2023-04-06T05:13:53;5.70;;;4.70;;
74158;SDS011;62511;47.970;11.774;2023-04-06T05:16:24;8.15;;;4.40;;
74158;SDS011;62511;47.970;11.774;2023-04-06T05:18:56;10.32;;;5.35;;
74158;SDS011;62511;47.970;11.774;2023-04-06T05:21:23;7.43;;;4.35;;
74158;SDS011;62511;47.970;11.774;2023-04-06T05:23:54;7.28;;;4.32;;
74158;SDS011;62511;47.970;11.774;2023-04-06T05:28:48;9.10;;;4.13;;
74158;SDS011;62511;47.970;11.774;2023-04-06T05:31:24;9.30;;;3.35;;
74158;SDS011;62511;47.970;11.774;2023-04-06T05:33:54;7.40;;;4.63;;
74158;SDS011;62511;47.970;11.774;2023-04-06T05:36:30;7.32;;;4.45;;
74158;SDS011;62511;47.970;11.774;2023-04-06T05:38:57;6.95;;;3.38;;
74158;SDS011;62511;47.970;11.774;2023-04-06T05:41:34;9.00;;;3.92;;
74158;SDS011;62511;47.970;11.774;2023-04-06T05:44:36;6.65;;;4.47;;
74158;SDS011;62511;47.970;11.774;2023-04-06T05:47:07;8.27;;;4.20;;
74158;SDS011;62511;47.970;11.774;2023-04-06T05:49:33;4.93;;;3.72;;
74158;SDS011;62511;47.970;11.774;2023-04-06T05:52:05;9.57;;;6.07;;
74158;SDS011;62511;47.970;11.774;2023-04-06T05:54:31;6.45;;;4.40;;
74158;SDS011;62511;47.970;11.774;2023-04-06T05:56:57;7.53;;;4.63;;
74158;SDS011;62511;47.970;11.774;2023-04-06T05:59:23;11.77;;;4.78;;
74158;SDS011;62511;47.970;11.774;2023-04-06T06:01:50;15.63;;;6.85;;
74158;SDS011;62511;47.970;11.774;2023-04-06T06:04:19;12.45;;;6.10;;
74158;SDS011;62511;47.970;11.774;2023-04-06T06:07:20;7.45;;;4.25;;
74158;SDS011;62511;47.970;11.774;2023-04-06T06:09:46;8.50;;;4.72;;
74158;SDS011;62511;47.970;11.774;2023-04-06T06:12:17;8.70;;;4.85;;
74158;SDS011;62511;47.970;11.774;2023-04-06T06:14:43;5.60;;;3.47;;
74158;SDS011;62511;47.970;11.774;2023-04-06T06:17:11;6.78;;;3.22;;
74158;SDS011;62511;47.970;11.774;2023-04-06T06:19:40;8.40;;;3.35;;
74158;SDS011;62511;47.970;11.774;2023-04-06T06:22:06;8.13;;;4.15;;
74158;SDS011;62511;47.970;11.774;2023-04-06T06:24:32;8.18;;;4.25;;
74158;SDS011;62511;47.970;11.774;2023-04-06T06:27:15;8.32;;;4.85;;
74158;SDS011;62511;47.970;11.774;2023-04-06T06:29:41;8.48;;;4.45;;
74158;SDS011;62511;47.970;11.774;2023-04-06T06:32:12;7.40;;;4.65;;
74158;SDS011;62511;47.970;11.774;2023-04-06T06:34:41;5.30;;;3.40;;
74158;SDS011;62511;47.970;11.774;2023-04-06T06:37:07;8.13;;;4.70;;
74158;SDS011;62511;47.970;11.774;2023-04-06T06:39:50;11.05;;;5.15;;
74158;SDS011;62511;47.970;11.774;2023-04-06T06:42:16;7.18;;;4.55;;
74158;SDS011;62511;47.970;11.774;2023-04-06T06:44:42;11.27;;;5.40;;
74158;SDS011;62511;47.970;11.774;2023-04-06T06:47:08;6.85;;;4.65;;
74158;SDS011;62511;47.970;11.774;2023-04-06T06:49:35;9.57;;;5.63;;
74158;SDS011;62511;47.970;11.774;2023-04-06T06:52:01;10.70;;;5.75;;
74158;SDS011;62511;47.970;11.774;2023-04-06T06:54:27;11.35;;;5.47;;
74158;SDS011;62511;47.970;11.774;2023-04-06T06:56:55;7.47;;;4.78;;
74158;SDS011;62511;47.970;11.774;2023-04-06T06:59:23;8.50;;;4.53;;
74158;SDS011;62511;47.970;11.774;2023-04-06T07:01:50;9.18;;;4.22;;
74158;SDS011;62511;47.970;11.774;2023-04-06T07:04:16;13.82;;;5.82;;
74158;SDS011;62511;47.970;11.774;2023-04-06T07:06:42;7.88;;;4.50;;
74158;SDS011;62511;47.970;11.774;2023-04-06T07:09:08;8.50;;;5.05;;
74158;SDS011;62511;47.970;11.774;2023-04-06T07:11:34;6.95;;;4.47;;
74158;SDS011;62511;47.970;11.774;2023-04-06T07:14:02;6.28;;;4.25;;
74158;SDS011;62511;47.970;11.774;2023-04-06T07:16:28;6.43;;;4.10;;
74158;SDS011;62511;47.970;11.774;2023-04-06T07:18:55;7.47;;;4.75;;
74158;SDS011;62511;47.970;11.774;2023-04-06T07:21:22;7.70;;;4.95;;
74158;SDS011;62511;47.970;11.774;2023-04-06T07:23:49;10.07;;;5.80;;
74158;SDS011;62511;47.970;11.774;2023-04-06T07:26:16;9.43;;;5.22;;
74158;SDS011;62511;47.970;11.774;2023-04-06T07:28:42;7.20;;;4.35;;
74158;SDS011;62511;47.970;11.774;2023-04-06T07:31:08;10.45;;;4.90;;
74158;SDS011;62511;47.970;11.774;2023-04-06T07:33:35;11.65;;;4.90;;
74158;SDS011;62511;47.970;11.774;2023-04-06T07:36:01;9.05;;;5.68;;
74158;SDS011;62511;47.970;11.774;2023-04-06T07:38:27;7.45;;;3.70;;
74158;SDS011;62511;47.970;11.774;2023-04-06T07:40:53;6.63;;;4.05;;
74158;SDS011;62511;47.970;11.774;2023-04-06T07:43:20;8.43;;;4.40;;
74158;SDS011;62511;47.970;11.774;2023-04-06T07:45:46;7.60;;;4.40;;
74158;SDS011;62511;47.970;11.774;2023-04-06T07:48:12;7.57;;;4.32;;
74158;SDS011;62511;47.970;11.774;2023-04-06T07:50:40;6.45;;;4.32;;
74158;SDS011;62511;47.970;11.774;2023-04-06T07:53:08;8.90;;;4.43;;
74158;SDS011;62511;47.970;11.774;2023-04-06T07:55:34;6.72;;;3.75;;
74158;SDS011;62511;47.970;11.774;2023-04-06T07:58:00;8.68;;;4.50;;
74158;SDS011;62511;47.970;11.774;2023-04-06T08:00:26;9.95;;;4.63;;
74158;SDS011;62511;47.970;11.774;2023-04-06T08:02:52;8.18;;;4.35;;
74158;SDS011;62511;47.970;11.774;2023-04-06T08:05:20;8.73;;;4.47;;
74158;SDS011;62511;47.970;11.774;2023-04-06T08:07:46;7.45;;;4.63;;
74158;SDS011;62511;47.970;11.774;2023-04-06T08:10:12;9.95;;;4.50;;
74158;SDS011;62511;47.970;11.774;2023-04-06T08:12:38;5.95;;;4.18;;
74158;SDS011;62511;47.970;11.774;2023-04-06T08:15:04;6.72;;;3.50;;
74158;SDS011;62511;47.970;11.774;2023-04-06T08:17:32;7.20;;;3.80;;
74158;SDS011;62511;47.970;11.774;2023-04-06T08:20:03;7.45;;;4.40;;
74158;SDS011;62511;47.970;11.774;2023-04-06T08:22:29;5.80;;;3.50;;
74158;SDS011;62511;47.970;11.774;2023-04-06T08:24:55;6.57;;;3.53;;
74158;SDS011;62511;47.970;11.774;2023-04-06T08:27:22;7.55;;;3.83;;
74158;SDS011;62511;47.970;11.774;2023-04-06T08:29:49;9.48;;;4.07;;
74158;SDS011;62511;47.970;11.774;2023-04-06T08:34:43;8.73;;;3.65;;
74158;SDS011;62511;47.970;11.774;2023-04-06T08:37:09;9.52;;;5.20;;
74158;SDS011;62511;47.970;11.774;2023-04-06T08:39:35;7.63;;;4.35;;
74158;SDS011;62511;47.970;11.774;2023-04-06T08:42:01;7.78;;;4.80;;
74158;SDS011;62511;47.970;11.774;2023-04-06T08:44:28;6.88;;;4.43;;
74158;SDS011;62511;47.970;11.774;2023-04-06T08:46:56;5.95;;;3.70;;
74158;SDS011;62511;47.970;11.774;2023-04-06T08:49:23;7.43;;;3.90;;
74158;SDS011;62511;47.970;11.774;2023-04-06T08:51:49;7.47;;;4.38;;
74158;SDS011;62511;47.970;11.774;2023-04-06T08:54:16;6.18;;;3.88;;
74158;SDS011;62511;47.970;11.774;2023-04-06T08:56:49;7.43;;;4.00;;
74158;SDS011;62511;47.970;11.774;2023-04-06T08:59:15;6.32;;;3.67;;
74158;SDS011;62511;47.970;11.774;2023-04-06T09:01:41;6.03;;;3.45;;
74158;SDS011;62511;47.970;11.774;2023-04-06T09:04:09;5.82;;;4.00;;
74158;SDS011;62511;47.970;11.774;2023-04-06T09:06:35;6.20;;;3.30;;
74158;SDS011;62511;47.970;11.774;2023-04-06T09:09:02;5.50;;;3.50;;
74158;SDS011;62511;47.970;11.774;2023-04-06T09:11:28;5.30;;;2.92;;
74158;SDS011;62511;47.970;11.774;2023-04-06T09:13:56;8.77;;;4.00;;
74158;SDS011;62511;47.970;11.774;2023-04-06T09:16:23;5.68;;;4.00;;
74158;SDS011;62511;47.970;11.774;2023-04-06T09:19:03;6.28;;;4.07;;
74158;SDS011;62511;47.970;11.774;2023-04-06T09:21:30;6.55;;;3.25;;
74158;SDS011;62511;47.970;11.774;2023-04-06T09:24:00;6.38;;;4.07;;
74158;SDS011;62511;47.970;11.774;2023-04-06T09:26:28;6.00;;;3.75;;
74158;SDS011;62511;47.970;11.774;2023-04-06T09:28:55;6.28;;;3.65;;
74158;SDS011;62511;47.970;11.774;2023-04-06T09:31:26;5.55;;;4.07;;
74158;SDS011;62511;47.970;11.774;2023-04-06T09:33:53;10.35;;;4.00;;
74158;SDS011;62511;47.970;11.774;2023-04-06T09:36:34;9.02;;;4.57;;
74158;SDS011;62511;47.970;11.774;2023-04-06T09:39:01;6.30;;;4.10;;
74158;SDS011;62511;47.970;11.774;2023-04-06T09:41:28;6.00;;;3.35;;
74158;SDS011;62511;47.970;11.774;2023-04-06T09:46:35;5.95;;;3.80;;
74158;SDS011;62511;47.970;11.774;2023-04-06T09:49:05;6.53;;;3.92;;
74158;SDS011;62511;47.970;11.774;2023-04-06T09:51:35;7.72;;;3.90;;
74158;SDS011;62511;47.970;11.774;2023-04-06T09:54:02;6.82;;;4.63;;
74158;SDS011;62511;47.970;11.774;2023-04-06T09:56:45;5.75;;;3.55;;
74158;SDS011;62511;47.970;11.774;2023-04-06T10:00:13;7.63;;;4.18;;
74158;SDS011;62511;47.970;11.774;2023-04-06T10:02:15;5.90;;;3.67;;
74158;SDS011;62511;47.970;11.774;2023-04-06T10:04:48;8.20;;;4.75;;
74158;SDS011;62511;47.970;11.774;2023-04-06T10:07:17;7.68;;;4.25;;
74158;SDS011;62511;47.970;11.774;2023-04-06T10:09:44;7.63;;;4.63;;
74158;SDS011;62511;47.970;11.774;2023-04-06T10:12:12;7.10;;;4.00;;
74158;SDS011;62511;47.970;11.774;2023-04-06T10:14:39;7.95;;;4.13;;
74158;SDS011;62511;47.970;11.774;2023-04-06T10:17:06;7.15;;;4.28;;
74158;SDS011;62511;47.970;11.774;2023-04-06T10:19:44;6.88;;;4.57;;
74158;SDS011;62511;47.970;11.774;2023-04-06T10:22:15;6.95;;;4.10;;
74158;SDS011;62511;47.970;11.774;2023-04-06T10:24:44;6.47;;;4.38;;
74158;SDS011;62511;47.970;11.774;2023-04-06T10:27:13;7.78;;;3.72;;
74158;SDS011;62511;47.970;11.774;2023-04-06T10:29:43;7.00;;;4.35;;
74158;SDS011;62511;47.970;11.774;2023-04-06T10:32:13;4.40;;;3.40;;
74158;SDS011;62511;47.970;11.774;2023-04-06T10:34:42;7.47;;;4.03;;
74158;SDS011;62511;47.970;11.774;2023-04-06T10:37:19;7.35;;;3.90;;
74158;SDS011;62511;47.970;11.774;2023-04-06T10:39:46;5.45;;;3.58;;
74158;SDS011;62511;47.970;11.774;2023-04-06T10:42:13;4.53;;;3.08;;
74158;SDS011;62511;47.970;11.774;2023-04-06T10:44:49;5.05;;;3.72;;
74158;SDS011;62511;47.970;11.774;2023-04-06T10:47:16;6.70;;;3.72;;
74158;SDS011;62511;47.970;11.774;2023-04-06T10:49:49;6.18;;;3.17;;
74158;SDS011;62511;47.970;11.774;2023-04-06T10:52:15;5.53;;;3.22;;
74158;SDS011;62511;47.970;11.774;2023-04-06T10:54:41;8.05;;;3.58;;
74158;SDS011;62511;47.970;11.774;2023-04-06T10:57:09;8.05;;;4.18;;
74158;SDS011;62511;47.970;11.774;2023-04-06T10:59:35;6.35;;;3.58;;
74158;SDS011;62511;47.970;11.774;2023-04-06T11:02:03;5.68;;;3.83;;
74158;SDS011;62511;47.970;11.774;2023-04-06T11:04:31;7.10;;;4.13;;
74158;SDS011;62511;47.970;11.774;2023-04-06T11:06:58;6.97;;;3.83;;
74158;SDS011;62511;47.970;11.774;2023-04-06T11:09:27;7.38;;;4.22;;
74158;SDS011;62511;47.970;11.774;2023-04-06T11:11:53;5.72;;;3.78;;
74158;SDS011;62511;47.970;11.774;2023-04-06T11:14:21;4.70;;;2.97;;
74158;SDS011;62511;47.970;11.774;2023-04-06T11:16:54;6.40;;;3.00;;
74158;SDS011;62511;47.970;11.774;2023-04-06T11:19:20;8.50;;;3.72;;
74158;SDS011;62511;47.970;11.774;2023-04-06T11:21:47;3.00;;;2.17;;
74158;SDS011;62511;47.970;11.774;2023-04-06T11:26:53;7.50;;;3.63;;
74158;SDS011;62511;47.970;11.774;2023-04-06T11:29:20;6.75;;;3.70;;
74158;SDS011;62511;47.970;11.774;2023-04-06T11:31:51;5.43;;;4.00;;
74158;SDS011;62511;47.970;11.774;2023-04-06T11:34:21;4.68;;;3.13;;
74158;SDS011;62511;47.970;11.774;2023-04-06T11:36:59;5.50;;;4.25;;
74158;SDS011;62511;47.970;11.774;2023-04-06T11:39:27;6.40;;;3.20;;
74158;SDS011;62511;47.970;11.774;2023-04-06T11:41:57;6.10;;;3.08;;
74158;SDS011;62511;47.970;11.774;2023-04-06T11:44:32;7.88;;;3.50;;
74158;SDS011;62511;47.970;11.774;2023-04-06T11:47:00;6.10;;;3.15;;
74158;SDS011;62511;47.970;11.774;2023-04-06T11:49:28;5.00;;;3.22;;
74158;SDS011;62511;47.970;11.774;2023-04-06T11:52:16;4.13;;;2.83;;
74158;SDS011;62511;47.970;11.774;2023-04-06T11:57:10;5.13;;;2.60;;
74158;SDS011;62511;47.970;11.774;2023-04-06T11:59:57;3.95;;;2.63;;
74158;SDS011;62511;47.970;11.774;2023-04-06T12:02:24;5.20;;;3.53;;
74158;SDS011;62511;47.970;11.774;2023-04-06T12:07:38;5.38;;;2.80;;
74158;SDS011;62511;47.970;11.774;2023-04-06T12:10:04;6.07;;;3.22;;
74158;SDS011;62511;47.970;11.774;2023-04-06T12:12:33;6.28;;;3.80;;
74158;SDS011;62511;47.970;11.774;2023-04-06T12:17:26;5.45;;;2.97;;
74158;SDS011;62511;47.970;11.774;2023-04-06T12:19:52;3.90;;;2.70;;
74158;SDS011;62511;47.970;11.774;2023-04-06T12:22:28;6.38;;;3.03;;
74158;SDS011;62511;47.970;11.774;2023-04-06T12:24:56;5.05;;;3.40;;
74158;SDS011;62511;47.970;11.774;2023-04-06T12:27:23;3.67;;;2.75;;
74158;SDS011;62511;47.970;11.774;2023-04-06T12:30:02;3.80;;;2.70;;
74158;SDS011;62511;47.970;11.774;2023-04-06T12:32:28;2.88;;;2.03;;
74158;SDS011;62511;47.970;11.774;2023-04-06T12:34:54;6.03;;;2.90;;
74158;SDS011;62511;47.970;11.774;2023-04-06T12:37:23;5.72;;;3.00;;
74158;SDS011;62511;47.970;11.774;2023-04-06T12:39:49;4.45;;;2.65;;
74158;SDS011;62511;47.970;11.774;2023-04-06T12:42:18;3.15;;;2.40;;
74158;SDS011;62511;47.970;11.774;2023-04-06T12:45:00;4.28;;;2.78;;
74158;SDS011;62511;47.970;11.774;2023-04-06T12:47:46;4.18;;;3.15;;
74158;SDS011;62511;47.970;11.774;2023-04-06T12:50:15;4.30;;;2.75;;
74158;SDS011;62511;47.970;11.774;2023-04-06T12:52:42;5.15;;;3.05;;
74158;SDS011;62511;47.970;11.774;2023-04-06T12:55:12;4.95;;;3.10;;
74158;SDS011;62511;47.970;11.774;2023-04-06T12:57:39;3.58;;;2.70;;
74158;SDS011;62511;47.970;11.774;2023-04-06T13:00:11;5.07;;;3.55;;
74158;SDS011;62511;47.970;11.774;2023-04-06T13:03:03;4.32;;;3.05;;
74158;SDS011;62511;47.970;11.774;2023-04-06T13:05:53;5.55;;;3.05;;
74158;SDS011;62511;47.970;11.774;2023-04-06T13:08:19;6.18;;;2.90;;
74158;SDS011;62511;47.970;11.774;2023-04-06T13:10:49;6.30;;;3.53;;
74158;SDS011;62511;47.970;11.774;2023-04-06T13:13:17;5.47;;;3.20;;
74158;SDS011;62511;47.970;11.774;2023-04-06T13:15:44;4.28;;;2.08;;
74158;SDS011;62511;47.970;11.774;2023-04-06T13:18:12;4.22;;;2.38;;
74158;SDS011;62511;47.970;11.774;2023-04-06T13:20:46;4.40;;;2.70;;
74158;SDS011;62511;47.970;11.774;2023-04-06T13:23:32;4.60;;;2.97;;
74158;SDS011;62511;47.970;11.774;2023-04-06T13:26:00;4.85;;;2.65;;
74158;SDS011;62511;47.970;11.774;2023-04-06T13:28:26;4.63;;;2.60;;
74158;SDS011;62511;47.970;11.774;2023-04-06T13:30:54;3.72;;;2.75;;
74158;SDS011;62511;47.970;11.774;2023-04-06T13:33:22;4.88;;;2.65;;
74158;SDS011;62511;47.970;11.774;2023-04-06T13:35:48;3.88;;;2.17;;
74158;SDS011;62511;47.970;11.774;2023-04-06T13:38:17;4.70;;;3.10;;
74158;SDS011;62511;47.970;11.774;2023-04-06T13:40:46;4.68;;;3.10;;
74158;SDS011;62511;47.970;11.774;2023-04-06T13:43:13;4.68;;;2.80;;
74158;SDS011;62511;47.970;11.774;2023-04-06T13:45:40;4.45;;;2.83;;
74158;SDS011;62511;47.970;11.774;2023-04-06T13:48:06;3.20;;;2.58;;
74158;SDS011;62511;47.970;11.774;2023-04-06T13:50:34;4.13;;;2.75;;
74158;SDS011;62511;47.970;11.774;2023-04-06T13:53:00;6.60;;;3.10;;
74158;SDS011;62511;47.970;11.774;2023-04-06T13:55:34;4.93;;;2.92;;
74158;SDS011;62511;47.970;11.774;2023-04-06T13:58:02;4.05;;;2.72;;
74158;SDS011;62511;47.970;11.774;2023-04-06T14:00:29;3.28;;;2.47;;
74158;SDS011;62511;47.970;11.774;2023-04-06T14:03:03;5.75;;;3.58;;
74158;SDS011;62511;47.970;11.774;2023-04-06T14:05:33;4.90;;;2.67;;
74158;SDS011;62511;47.970;11.774;2023-04-06T14:07:59;4.10;;;3.00;;
74158;SDS011;62511;47.970;11.774;2023-04-06T14:10:47;4.50;;;2.92;;
74158;SDS011;62511;47.970;11.774;2023-04-06T14:13:36;4.57;;;2.92;;
74158;SDS011;62511;47.970;11.774;2023-04-06T14:16:04;4.35;;;3.20;;
74158;SDS011;62511;47.970;11.774;2023-04-06T14:18:30;3.95;;;3.03;;
74158;SDS011;62511;47.970;11.774;2023-04-06T14:21:04;6.03;;;3.50;;
74158;SDS011;62511;47.970;11.774;2023-04-06T14:23:31;4.90;;;2.83;;
74158;SDS011;62511;47.970;11.774;2023-04-06T14:26:04;3.88;;;2.25;;
74158;SDS011;62511;47.970;11.774;2023-04-06T14:28:35;3.72;;;2.40;;
74158;SDS011;62511;47.970;11.774;2023-04-06T14:31:10;3.30;;;2.45;;
74158;SDS011;62511;47.970;11.774;2023-04-06T14:33:45;5.32;;;3.20;;
74158;SDS011;62511;47.970;11.774;2023-04-06T14:38:45;1.98;;;1.77;;
74158;SDS011;62511;47.970;11.774;2023-04-06T14:41:17;3.92;;;2.78;;
74158;SDS011;62511;47.970;11.774;2023-04-06T14:43:44;8.23;;;2.63;;
74158;SDS011;62511;47.970;11.774;2023-04-06T14:46:10;3.70;;;2.65;;
74158;SDS011;62511;47.970;11.774;2023-04-06T14:48:36;5.10;;;3.30;;
74158;SDS011;62511;47.970;11.774;2023-04-06T14:51:02;4.63;;;3.40;;
74158;SDS011;62511;47.970;11.774;2023-04-06T14:53:28;4.15;;;2.80;;
74158;SDS011;62511;47.970;11.774;2023-04-06T14:55:56;4.30;;;3.30;;
74158;SDS011;62511;47.970;11.774;2023-04-06T14:58:25;5.43;;;3.10;;
74158;SDS011;62511;47.970;11.774;2023-04-06T15:01:00;3.83;;;2.97;;
74158;SDS011;62511;47.970;11.774;2023-04-06T15:03:29;5.45;;;2.42;;
74158;SDS011;62511;47.970;11.774;2023-04-06T15:06:00;4.78;;;3.13;;
74158;SDS011;62511;47.970;11.774;2023-04-06T15:08:26;5.93;;;3.05;;
74158;SDS011;62511;47.970;11.774;2023-04-06T15:11:01;4.57;;;2.50;;
74158;SDS011;62511;47.970;11.774;2023-04-06T15:13:28;6.07;;;3.50;;
74158;SDS011;62511;47.970;11.774;2023-04-06T15:15:55;4.57;;;2.80;;
74158;SDS011;62511;47.970;11.774;2023-04-06T15:18:21;4.47;;;3.10;;
74158;SDS011;62511;47.970;11.774;2023-04-06T15:20:52;5.28;;;3.00;;
74158;SDS011;62511;47.970;11.774;2023-04-06T15:23:31;5.68;;;3.67;;
74158;SDS011;62511;47.970;11.774;2023-04-06T15:25:59;4.97;;;2.67;;
74158;SDS011;62511;47.970;11.774;2023-04-06T15:28:25;5.93;;;2.70;;